sensor_id;sensor_type;location;lat;lon;timestamp;temperature;humidity
18141;DHT22;9196;49.194;12.526;2022-08-25T00:01:50;17.80;99.90
18141;DHT22;9196;49.194;12.526;2022-08-25T00:04:19;17.80;99.90
18141;DHT22;9196;49.194;12.526;2022-08-25T00:06:47;17.80;99.90
18141;DHT22;9196;49.194;12.526;2022-08-25T00:09:16;17.80;99.90
18141;DHT22;9196;49.194;12.526;2022-08-25T00:11:43;17.80;99.90
18141;DHT22;9196;49.194;12.526;2022-08-25T00:14:15;17.80;99.90
18141;DHT22;9196;49.194;12.526;2022-08-25T00:16:43;17.80;99.90
18141;DHT22;9196;49.194;12.526;2022-08-25T00:19:12;17.80;99.90
18141;DHT22;9196;49.194;12.526;2022-08-25T00:21:40;17.70;99.90
18141;DHT22;9196;49.194;12.526;2022-08-25T00:24:09;17.70;99.90
18141;DHT22;9196;49.194;12.526;2022-08-25T00:26:38;17.70;99.90
18141;DHT22;9196;49.194;12.526;2022-08-25T00:29:06;17.60;99.90
18141;DHT22;9196;49.194;12.526;2022-08-25T00:31:34;17.50;99.90
18141;DHT22;9196;49.194;12.526;2022-08-25T00:34:01;17.50;99.90
18141;DHT22;9196;49.194;12.526;2022-08-25T00:36:28;17.50;99.90
18141;DHT22;9196;49.194;12.526;2022-08-25T00:38:55;17.50;99.90
18141;DHT22;9196;49.194;12.526;2022-08-25T00:41:24;17.50;99.90
18141;DHT22;9196;49.194;12.526;2022-08-25T00:43:54;17.40;99.90
18141;DHT22;9196;49.194;12.526;2022-08-25T00:46:23;17.40;99.90
18141;DHT22;9196;49.194;12.526;2022-08-25T00:48:56;17.40;99.90
18141;DHT22;9196;49.194;12.526;2022-08-25T00:51:38;17.40;99.90
18141;DHT22;9196;49.194;12.526;2022-08-25T00:54:08;17.40;99.90
18141;DHT22;9196;49.194;12.526;2022-08-25T00:56:37;17.30;99.90
18141;DHT22;9196;49.194;12.526;2022-08-25T00:59:05;17.30;99.90
18141;DHT22;9196;49.194;12.526;2022-08-25T01:01:32;17.30;99.90
18141;DHT22;9196;49.194;12.526;2022-08-25T01:04:00;17.30;99.90
18141;DHT22;9196;49.194;12.526;2022-08-25T01:06:30;17.20;99.90
18141;DHT22;9196;49.194;12.526;2022-08-25T01:08:59;17.20;99.90
18141;DHT22;9196;49.194;12.526;2022-08-25T01:11:26;17.30;99.90
18141;DHT22;9196;49.194;12.526;2022-08-25T01:13:54;17.20;99.90
18141;DHT22;9196;49.194;12.526;2022-08-25T01:16:22;17.20;99.90
18141;DHT22;9196;49.194;12.526;2022-08-25T01:18:51;17.10;99.90
18141;DHT22;9196;49.194;12.526;2022-08-25T01:21:21;17.10;99.90
18141;DHT22;9196;49.194;12.526;2022-08-25T01:23:49;17.10;99.90
18141;DHT22;9196;49.194;12.526;2022-08-25T01:26:19;17.10;99.90
18141;DHT22;9196;49.194;12.526;2022-08-25T01:28:48;17.00;99.90
18141;DHT22;9196;49.194;12.526;2022-08-25T01:31:32;17.00;99.90
18141;DHT22;9196;49.194;12.526;2022-08-25T01:33:59;17.00;99.90
18141;DHT22;9196;49.194;12.526;2022-08-25T01:36:28;17.00;99.90
18141;DHT22;9196;49.194;12.526;2022-08-25T01:38:56;17.00;99.90
18141;DHT22;9196;49.194;12.526;2022-08-25T01:41:30;16.90;99.90
18141;DHT22;9196;49.194;12.526;2022-08-25T01:44:01;16.90;99.90
18141;DHT22;9196;49.194;12.526;2022-08-25T01:46:30;16.90;99.90
18141;DHT22;9196;49.194;12.526;2022-08-25T01:48:57;16.80;99.90
18141;DHT22;9196;49.194;12.526;2022-08-25T01:51:29;16.80;99.90
18141;DHT22;9196;49.194;12.526;2022-08-25T01:53:59;16.80;99.90
18141;DHT22;9196;49.194;12.526;2022-08-25T01:56:26;16.80;99.90
18141;DHT22;9196;49.194;12.526;2022-08-25T01:58:52;16.80;99.90
18141;DHT22;9196;49.194;12.526;2022-08-25T02:01:23;16.70;99.90
18141;DHT22;9196;49.194;12.526;2022-08-25T02:03:52;16.70;99.90
18141;DHT22;9196;49.194;12.526;2022-08-25T02:06:25;16.70;99.90
18141;DHT22;9196;49.194;12.526;2022-08-25T02:08:56;16.70;99.90
18141;DHT22;9196;49.194;12.526;2022-08-25T02:11:24;16.70;99.90
18141;DHT22;9196;49.194;12.526;2022-08-25T02:13:51;16.70;99.90
18141;DHT22;9196;49.194;12.526;2022-08-25T02:16:22;16.70;99.90
18141;DHT22;9196;49.194;12.526;2022-08-25T02:18:50;16.70;99.90
18141;DHT22;9196;49.194;12.526;2022-08-25T02:21:17;16.70;99.90
18141;DHT22;9196;49.194;12.526;2022-08-25T02:23:44;16.60;99.90
18141;DHT22;9196;49.194;12.526;2022-08-25T02:26:13;16.40;99.90
18141;DHT22;9196;49.194;12.526;2022-08-25T02:28:41;16.30;99.90
18141;DHT22;9196;49.194;12.526;2022-08-25T02:31:09;16.20;99.90
18141;DHT22;9196;49.194;12.526;2022-08-25T02:33:36;16.30;99.90
18141;DHT22;9196;49.194;12.526;2022-08-25T02:36:04;16.30;99.90
18141;DHT22;9196;49.194;12.526;2022-08-25T02:38:32;16.30;99.90
18141;DHT22;9196;49.194;12.526;2022-08-25T02:41:00;16.40;99.90
18141;DHT22;9196;49.194;12.526;2022-08-25T02:43:28;16.30;99.90
18141;DHT22;9196;49.194;12.526;2022-08-25T02:45:55;16.30;99.90
18141;DHT22;9196;49.194;12.526;2022-08-25T02:48:22;16.30;99.90
18141;DHT22;9196;49.194;12.526;2022-08-25T02:50:50;16.30;99.90
18141;DHT22;9196;49.194;12.526;2022-08-25T02:53:17;16.40;99.90
18141;DHT22;9196;49.194;12.526;2022-08-25T02:55:44;16.40;99.90
18141;DHT22;9196;49.194;12.526;2022-08-25T02:58:11;16.40;99.90
18141;DHT22;9196;49.194;12.526;2022-08-25T03:00:40;16.30;99.90
18141;DHT22;9196;49.194;12.526;2022-08-25T03:03:06;16.20;99.90
18141;DHT22;9196;49.194;12.526;2022-08-25T03:05:33;16.20;99.90
18141;DHT22;9196;49.194;12.526;2022-08-25T03:08:01;16.20;99.90
18141;DHT22;9196;49.194;12.526;2022-08-25T03:10:28;16.20;99.90
18141;DHT22;9196;49.194;12.526;2022-08-25T03:12:55;16.30;99.90
18141;DHT22;9196;49.194;12.526;2022-08-25T03:15:22;16.30;99.90
18141;DHT22;9196;49.194;12.526;2022-08-25T03:17:51;16.30;99.90
18141;DHT22;9196;49.194;12.526;2022-08-25T03:20:18;16.30;99.90
18141;DHT22;9196;49.194;12.526;2022-08-25T03:22:45;16.30;99.90
18141;DHT22;9196;49.194;12.526;2022-08-25T03:25:12;16.30;99.90
18141;DHT22;9196;49.194;12.526;2022-08-25T03:27:56;16.30;99.90
18141;DHT22;9196;49.194;12.526;2022-08-25T03:30:23;16.30;99.90
18141;DHT22;9196;49.194;12.526;2022-08-25T03:32:51;16.20;99.90
18141;DHT22;9196;49.194;12.526;2022-08-25T03:35:18;16.10;99.90
18141;DHT22;9196;49.194;12.526;2022-08-25T03:37:45;16.00;99.90
18141;DHT22;9196;49.194;12.526;2022-08-25T03:40:14;15.90;99.90
18141;DHT22;9196;49.194;12.526;2022-08-25T03:42:42;16.00;99.90
18141;DHT22;9196;49.194;12.526;2022-08-25T03:45:13;16.00;99.90
18141;DHT22;9196;49.194;12.526;2022-08-25T03:47:41;16.00;99.90
18141;DHT22;9196;49.194;12.526;2022-08-25T03:50:10;16.00;99.90
18141;DHT22;9196;49.194;12.526;2022-08-25T03:52:37;16.00;99.90
18141;DHT22;9196;49.194;12.526;2022-08-25T03:55:11;16.10;99.90
18141;DHT22;9196;49.194;12.526;2022-08-25T03:57:39;16.10;99.90
18141;DHT22;9196;49.194;12.526;2022-08-25T04:00:07;16.10;99.90
18141;DHT22;9196;49.194;12.526;2022-08-25T04:02:36;16.00;99.90
18141;DHT22;9196;49.194;12.526;2022-08-25T04:05:04;16.00;99.90
18141;DHT22;9196;49.194;12.526;2022-08-25T04:07:32;16.00;99.90
18141;DHT22;9196;49.194;12.526;2022-08-25T04:09:59;16.00;99.90
18141;DHT22;9196;49.194;12.526;2022-08-25T04:12:26;16.10;99.90
18141;DHT22;9196;49.194;12.526;2022-08-25T04:14:53;16.00;99.90
18141;DHT22;9196;49.194;12.526;2022-08-25T04:17:20;16.00;99.90
18141;DHT22;9196;49.194;12.526;2022-08-25T04:19:47;16.00;99.90
18141;DHT22;9196;49.194;12.526;2022-08-25T04:22:15;16.00;99.90
18141;DHT22;9196;49.194;12.526;2022-08-25T04:24:43;16.00;99.90
18141;DHT22;9196;49.194;12.526;2022-08-25T04:27:10;16.00;99.90
18141;DHT22;9196;49.194;12.526;2022-08-25T04:29:37;16.00;99.90
18141;DHT22;9196;49.194;12.526;2022-08-25T04:32:04;16.00;99.90
18141;DHT22;9196;49.194;12.526;2022-08-25T04:34:31;16.00;99.90
18141;DHT22;9196;49.194;12.526;2022-08-25T04:36:59;16.00;99.90
18141;DHT22;9196;49.194;12.526;2022-08-25T04:39:27;16.00;99.90
18141;DHT22;9196;49.194;12.526;2022-08-25T04:41:55;15.90;99.90
18141;DHT22;9196;49.194;12.526;2022-08-25T04:44:22;15.90;99.90
18141;DHT22;9196;49.194;12.526;2022-08-25T04:46:49;15.90;99.90
18141;DHT22;9196;49.194;12.526;2022-08-25T04:49:16;16.00;99.90
18141;DHT22;9196;49.194;12.526;2022-08-25T04:51:44;16.10;99.90
18141;DHT22;9196;49.194;12.526;2022-08-25T04:54:12;16.10;99.90
18141;DHT22;9196;49.194;12.526;2022-08-25T04:56:41;16.20;99.90
18141;DHT22;9196;49.194;12.526;2022-08-25T04:59:12;16.20;99.90
18141;DHT22;9196;49.194;12.526;2022-08-25T05:01:40;16.20;99.90
18141;DHT22;9196;49.194;12.526;2022-08-25T05:04:09;16.20;99.90
18141;DHT22;9196;49.194;12.526;2022-08-25T05:06:36;16.20;99.90
18141;DHT22;9196;49.194;12.526;2022-08-25T05:09:04;16.30;99.90
18141;DHT22;9196;49.194;12.526;2022-08-25T05:11:31;16.40;99.90
18141;DHT22;9196;49.194;12.526;2022-08-25T05:14:00;16.40;99.90
18141;DHT22;9196;49.194;12.526;2022-08-25T05:16:28;16.50;99.90
18141;DHT22;9196;49.194;12.526;2022-08-25T05:18:55;16.50;99.90
18141;DHT22;9196;49.194;12.526;2022-08-25T05:21:26;16.50;99.90
18141;DHT22;9196;49.194;12.526;2022-08-25T05:23:55;16.50;99.90
18141;DHT22;9196;49.194;12.526;2022-08-25T05:26:23;16.50;99.90
18141;DHT22;9196;49.194;12.526;2022-08-25T05:28:52;16.50;99.90
18141;DHT22;9196;49.194;12.526;2022-08-25T05:31:20;16.50;99.90
18141;DHT22;9196;49.194;12.526;2022-08-25T05:33:49;16.60;99.90
18141;DHT22;9196;49.194;12.526;2022-08-25T05:36:17;16.70;99.90
18141;DHT22;9196;49.194;12.526;2022-08-25T05:38:45;16.80;99.90
18141;DHT22;9196;49.194;12.526;2022-08-25T05:41:14;16.80;99.90
18141;DHT22;9196;49.194;12.526;2022-08-25T05:43:43;16.90;99.90
18141;DHT22;9196;49.194;12.526;2022-08-25T05:46:11;17.00;99.90
18141;DHT22;9196;49.194;12.526;2022-08-25T05:48:38;17.10;99.90
18141;DHT22;9196;49.194;12.526;2022-08-25T05:51:08;17.10;99.90
18141;DHT22;9196;49.194;12.526;2022-08-25T05:53:36;17.10;99.90
18141;DHT22;9196;49.194;12.526;2022-08-25T05:56:04;17.20;99.90
18141;DHT22;9196;49.194;12.526;2022-08-25T05:58:31;17.30;99.90
18141;DHT22;9196;49.194;12.526;2022-08-25T06:00:59;17.40;99.90
18141;DHT22;9196;49.194;12.526;2022-08-25T06:03:46;17.50;99.90
18141;DHT22;9196;49.194;12.526;2022-08-25T06:06:14;17.60;99.90
18141;DHT22;9196;49.194;12.526;2022-08-25T06:08:41;17.70;99.90
18141;DHT22;9196;49.194;12.526;2022-08-25T06:11:09;17.80;99.90
18141;DHT22;9196;49.194;12.526;2022-08-25T06:13:37;17.70;99.90
18141;DHT22;9196;49.194;12.526;2022-08-25T06:16:05;17.70;99.90
18141;DHT22;9196;49.194;12.526;2022-08-25T06:18:32;17.70;99.90
18141;DHT22;9196;49.194;12.526;2022-08-25T06:21:05;17.80;99.90
18141;DHT22;9196;49.194;12.526;2022-08-25T06:23:35;17.80;99.90
18141;DHT22;9196;49.194;12.526;2022-08-25T06:26:03;17.90;99.90
18141;DHT22;9196;49.194;12.526;2022-08-25T06:28:30;18.00;99.90
18141;DHT22;9196;49.194;12.526;2022-08-25T06:30:57;18.00;99.90
18141;DHT22;9196;49.194;12.526;2022-08-25T06:33:25;18.00;99.90
18141;DHT22;9196;49.194;12.526;2022-08-25T06:35:53;18.10;99.90
18141;DHT22;9196;49.194;12.526;2022-08-25T06:38:20;18.10;99.90
18141;DHT22;9196;49.194;12.526;2022-08-25T06:40:49;18.20;99.90
18141;DHT22;9196;49.194;12.526;2022-08-25T06:43:16;18.30;99.90
18141;DHT22;9196;49.194;12.526;2022-08-25T06:45:43;18.30;99.90
18141;DHT22;9196;49.194;12.526;2022-08-25T06:48:10;18.20;99.90
18141;DHT22;9196;49.194;12.526;2022-08-25T06:50:37;18.10;99.90
18141;DHT22;9196;49.194;12.526;2022-08-25T06:53:04;18.20;99.90
18141;DHT22;9196;49.194;12.526;2022-08-25T06:55:32;18.30;99.90
18141;DHT22;9196;49.194;12.526;2022-08-25T06:58:01;18.40;99.90
18141;DHT22;9196;49.194;12.526;2022-08-25T07:00:29;18.50;99.90
18141;DHT22;9196;49.194;12.526;2022-08-25T07:02:56;18.70;99.90
18141;DHT22;9196;49.194;12.526;2022-08-25T07:05:25;18.90;99.90
18141;DHT22;9196;49.194;12.526;2022-08-25T07:07:52;19.20;99.90
18141;DHT22;9196;49.194;12.526;2022-08-25T07:10:19;19.30;99.90
18141;DHT22;9196;49.194;12.526;2022-08-25T07:12:46;19.50;99.90
18141;DHT22;9196;49.194;12.526;2022-08-25T07:15:14;19.50;99.90
18141;DHT22;9196;49.194;12.526;2022-08-25T07:17:41;19.50;99.90
18141;DHT22;9196;49.194;12.526;2022-08-25T07:20:08;19.50;99.90
18141;DHT22;9196;49.194;12.526;2022-08-25T07:22:35;19.50;99.90
18141;DHT22;9196;49.194;12.526;2022-08-25T07:25:03;19.60;99.90
18141;DHT22;9196;49.194;12.526;2022-08-25T07:27:30;19.60;99.90
18141;DHT22;9196;49.194;12.526;2022-08-25T07:29:57;19.70;99.90
18141;DHT22;9196;49.194;12.526;2022-08-25T07:32:25;19.70;99.90
18141;DHT22;9196;49.194;12.526;2022-08-25T07:34:52;19.80;99.90
18141;DHT22;9196;49.194;12.526;2022-08-25T07:37:37;20.00;99.90
18141;DHT22;9196;49.194;12.526;2022-08-25T07:40:05;20.20;99.90
18141;DHT22;9196;49.194;12.526;2022-08-25T07:42:32;20.40;99.90
18141;DHT22;9196;49.194;12.526;2022-08-25T07:45:00;20.70;99.90
18141;DHT22;9196;49.194;12.526;2022-08-25T07:47:29;20.90;99.90
18141;DHT22;9196;49.194;12.526;2022-08-25T07:49:57;21.10;99.90
18141;DHT22;9196;49.194;12.526;2022-08-25T07:52:24;21.30;99.90
18141;DHT22;9196;49.194;12.526;2022-08-25T07:54:50;21.40;99.90
18141;DHT22;9196;49.194;12.526;2022-08-25T07:57:19;21.60;99.90
18141;DHT22;9196;49.194;12.526;2022-08-25T07:59:49;21.70;99.90
18141;DHT22;9196;49.194;12.526;2022-08-25T08:02:16;21.80;99.90
18141;DHT22;9196;49.194;12.526;2022-08-25T08:04:45;22.00;99.90
18141;DHT22;9196;49.194;12.526;2022-08-25T08:07:15;22.10;99.90
18141;DHT22;9196;49.194;12.526;2022-08-25T08:09:41;22.10;99.90
18141;DHT22;9196;49.194;12.526;2022-08-25T08:12:08;22.10;99.90
18141;DHT22;9196;49.194;12.526;2022-08-25T08:14:36;22.10;99.90
18141;DHT22;9196;49.194;12.526;2022-08-25T08:17:05;22.10;99.90
18141;DHT22;9196;49.194;12.526;2022-08-25T08:19:33;22.00;99.90
18141;DHT22;9196;49.194;12.526;2022-08-25T08:22:02;22.00;99.90
18141;DHT22;9196;49.194;12.526;2022-08-25T08:24:29;22.00;99.90
18141;DHT22;9196;49.194;12.526;2022-08-25T08:26:57;22.00;99.90
18141;DHT22;9196;49.194;12.526;2022-08-25T08:29:24;22.00;99.90
18141;DHT22;9196;49.194;12.526;2022-08-25T08:31:51;22.10;99.90
18141;DHT22;9196;49.194;12.526;2022-08-25T08:34:18;22.20;99.90
18141;DHT22;9196;49.194;12.526;2022-08-25T08:36:44;22.20;99.90
18141;DHT22;9196;49.194;12.526;2022-08-25T08:39:13;22.10;99.90
18141;DHT22;9196;49.194;12.526;2022-08-25T08:41:51;22.00;99.90
18141;DHT22;9196;49.194;12.526;2022-08-25T08:44:53;21.90;99.90
18141;DHT22;9196;49.194;12.526;2022-08-25T08:47:27;21.90;99.90
18141;DHT22;9196;49.194;12.526;2022-08-25T08:50:05;21.90;99.90
18141;DHT22;9196;49.194;12.526;2022-08-25T08:52:39;22.00;99.90
18141;DHT22;9196;49.194;12.526;2022-08-25T08:55:14;22.10;99.90
18141;DHT22;9196;49.194;12.526;2022-08-25T08:57:47;22.10;99.90
18141;DHT22;9196;49.194;12.526;2022-08-25T09:00:16;22.10;99.90
18141;DHT22;9196;49.194;12.526;2022-08-25T09:02:50;22.10;99.90
18141;DHT22;9196;49.194;12.526;2022-08-25T09:05:19;22.30;99.90
18141;DHT22;9196;49.194;12.526;2022-08-25T09:07:49;22.30;99.90
18141;DHT22;9196;49.194;12.526;2022-08-25T09:10:18;22.50;99.90
18141;DHT22;9196;49.194;12.526;2022-08-25T09:12:50;22.60;99.90
18141;DHT22;9196;49.194;12.526;2022-08-25T09:15:31;22.80;99.90
18141;DHT22;9196;49.194;12.526;2022-08-25T09:18:17;23.00;99.90
18141;DHT22;9196;49.194;12.526;2022-08-25T09:20:57;23.20;99.90
18141;DHT22;9196;49.194;12.526;2022-08-25T09:23:32;23.30;99.90
18141;DHT22;9196;49.194;12.526;2022-08-25T09:26:19;23.40;99.90
18141;DHT22;9196;49.194;12.526;2022-08-25T09:28:53;23.50;99.90
18141;DHT22;9196;49.194;12.526;2022-08-25T09:31:26;23.70;99.90
18141;DHT22;9196;49.194;12.526;2022-08-25T09:33:57;23.80;99.90
18141;DHT22;9196;49.194;12.526;2022-08-25T09:36:26;23.90;99.90
18141;DHT22;9196;49.194;12.526;2022-08-25T09:38:53;24.00;99.90
18141;DHT22;9196;49.194;12.526;2022-08-25T09:41:44;23.90;99.90
18141;DHT22;9196;49.194;12.526;2022-08-25T09:44:25;24.00;99.90
18141;DHT22;9196;49.194;12.526;2022-08-25T09:46:58;24.00;99.90
18141;DHT22;9196;49.194;12.526;2022-08-25T09:49:39;24.20;99.90
18141;DHT22;9196;49.194;12.526;2022-08-25T09:52:18;24.40;99.90
18141;DHT22;9196;49.194;12.526;2022-08-25T09:54:47;24.50;99.90
18141;DHT22;9196;49.194;12.526;2022-08-25T09:57:33;24.60;99.90
18141;DHT22;9196;49.194;12.526;2022-08-25T10:00:16;24.70;99.90
18141;DHT22;9196;49.194;12.526;2022-08-25T10:02:59;24.80;99.90
18141;DHT22;9196;49.194;12.526;2022-08-25T10:05:26;25.00;99.90
18141;DHT22;9196;49.194;12.526;2022-08-25T10:07:57;24.90;99.90
18141;DHT22;9196;49.194;12.526;2022-08-25T10:10:28;25.00;99.90
18141;DHT22;9196;49.194;12.526;2022-08-25T10:12:58;25.00;99.90
18141;DHT22;9196;49.194;12.526;2022-08-25T10:15:29;25.20;99.90
18141;DHT22;9196;49.194;12.526;2022-08-25T10:17:57;25.30;99.90
18141;DHT22;9196;49.194;12.526;2022-08-25T10:20:42;25.40;99.90
18141;DHT22;9196;49.194;12.526;2022-08-25T10:23:11;25.40;99.90
18141;DHT22;9196;49.194;12.526;2022-08-25T10:25:42;25.30;99.90
18141;DHT22;9196;49.194;12.526;2022-08-25T10:28:19;25.40;99.90
18141;DHT22;9196;49.194;12.526;2022-08-25T10:31:00;25.30;99.90
18141;DHT22;9196;49.194;12.526;2022-08-25T10:33:36;25.40;99.90
18141;DHT22;9196;49.194;12.526;2022-08-25T10:36:09;25.40;99.90
18141;DHT22;9196;49.194;12.526;2022-08-25T10:38:43;25.60;99.90
18141;DHT22;9196;49.194;12.526;2022-08-25T10:41:26;25.70;99.90
18141;DHT22;9196;49.194;12.526;2022-08-25T10:44:05;25.90;99.90
18141;DHT22;9196;49.194;12.526;2022-08-25T10:47:04;26.10;99.90
18141;DHT22;9196;49.194;12.526;2022-08-25T10:49:38;26.10;99.90
18141;DHT22;9196;49.194;12.526;2022-08-25T10:52:13;26.20;99.90
18141;DHT22;9196;49.194;12.526;2022-08-25T10:54:47;26.30;99.90
18141;DHT22;9196;49.194;12.526;2022-08-25T10:57:21;26.40;99.90
18141;DHT22;9196;49.194;12.526;2022-08-25T11:00:00;26.50;99.90
18141;DHT22;9196;49.194;12.526;2022-08-25T11:02:52;26.80;99.90
18141;DHT22;9196;49.194;12.526;2022-08-25T11:05:26;26.90;99.90
18141;DHT22;9196;49.194;12.526;2022-08-25T11:07:59;27.00;99.90
18141;DHT22;9196;49.194;12.526;2022-08-25T11:10:37;27.00;99.90
18141;DHT22;9196;49.194;12.526;2022-08-25T11:13:10;27.00;99.90
18141;DHT22;9196;49.194;12.526;2022-08-25T11:15:44;27.10;99.90
18141;DHT22;9196;49.194;12.526;2022-08-25T11:18:13;27.30;99.90
18141;DHT22;9196;49.194;12.526;2022-08-25T11:20:44;27.30;99.90
18141;DHT22;9196;49.194;12.526;2022-08-25T11:23:19;27.50;99.90
18141;DHT22;9196;49.194;12.526;2022-08-25T11:25:50;27.60;99.90
18141;DHT22;9196;49.194;12.526;2022-08-25T11:28:22;27.70;99.90
18141;DHT22;9196;49.194;12.526;2022-08-25T11:30:56;27.80;99.80
18141;DHT22;9196;49.194;12.526;2022-08-25T11:33:23;27.70;99.50
18141;DHT22;9196;49.194;12.526;2022-08-25T11:35:54;27.80;99.70
18141;DHT22;9196;49.194;12.526;2022-08-25T11:38:34;27.80;98.90
18141;DHT22;9196;49.194;12.526;2022-08-25T11:41:16;27.80;99.00
18141;DHT22;9196;49.194;12.526;2022-08-25T11:43:54;27.90;98.90
18141;DHT22;9196;49.194;12.526;2022-08-25T11:46:34;27.80;98.80
18141;DHT22;9196;49.194;12.526;2022-08-25T11:49:18;27.60;97.90
18141;DHT22;9196;49.194;12.526;2022-08-25T11:51:51;27.60;98.70
18141;DHT22;9196;49.194;12.526;2022-08-25T11:54:21;27.60;98.50
18141;DHT22;9196;49.194;12.526;2022-08-25T11:56:56;27.70;99.00
18141;DHT22;9196;49.194;12.526;2022-08-25T11:59:59;27.80;98.40
18141;DHT22;9196;49.194;12.526;2022-08-25T12:02:31;27.90;98.10
18141;DHT22;9196;49.194;12.526;2022-08-25T12:04:59;28.20;98.80
18141;DHT22;9196;49.194;12.526;2022-08-25T12:07:28;28.50;97.60
18141;DHT22;9196;49.194;12.526;2022-08-25T12:10:14;28.40;96.50
18141;DHT22;9196;49.194;12.526;2022-08-25T12:16:03;29.00;97.10
18141;DHT22;9196;49.194;12.526;2022-08-25T12:18:44;29.00;95.40
18141;DHT22;9196;49.194;12.526;2022-08-25T12:21:15;28.60;95.50
18141;DHT22;9196;49.194;12.526;2022-08-25T12:24:18;28.40;96.00
18141;DHT22;9196;49.194;12.526;2022-08-25T12:26:56;28.20;96.90
18141;DHT22;9196;49.194;12.526;2022-08-25T12:29:31;28.40;97.70
18141;DHT22;9196;49.194;12.526;2022-08-25T12:32:05;28.80;96.30
18141;DHT22;9196;49.194;12.526;2022-08-25T12:34:53;28.70;95.50
18141;DHT22;9196;49.194;12.526;2022-08-25T12:37:25;28.60;95.70
18141;DHT22;9196;49.194;12.526;2022-08-25T12:39:57;28.90;95.10
18141;DHT22;9196;49.194;12.526;2022-08-25T12:42:29;29.00;95.10
18141;DHT22;9196;49.194;12.526;2022-08-25T12:45:34;29.10;94.60
18141;DHT22;9196;49.194;12.526;2022-08-25T12:48:41;29.10;94.30
18141;DHT22;9196;49.194;12.526;2022-08-25T12:51:16;29.40;93.90
18141;DHT22;9196;49.194;12.526;2022-08-25T12:53:47;29.60;93.50
18141;DHT22;9196;49.194;12.526;2022-08-25T12:56:28;29.70;93.50
18141;DHT22;9196;49.194;12.526;2022-08-25T12:59:09;29.80;92.90
18141;DHT22;9196;49.194;12.526;2022-08-25T13:01:59;29.80;93.00
18141;DHT22;9196;49.194;12.526;2022-08-25T13:07:54;29.40;92.40
18141;DHT22;9196;49.194;12.526;2022-08-25T13:10:33;28.90;92.60
18141;DHT22;9196;49.194;12.526;2022-08-25T13:13:11;28.70;93.30
18141;DHT22;9196;49.194;12.526;2022-08-25T13:15:43;28.50;93.30
18141;DHT22;9196;49.194;12.526;2022-08-25T13:18:22;28.70;94.00
18141;DHT22;9196;49.194;12.526;2022-08-25T13:20:54;29.00;94.20
18141;DHT22;9196;49.194;12.526;2022-08-25T13:23:31;29.30;93.20
18141;DHT22;9196;49.194;12.526;2022-08-25T13:25:59;29.20;92.40
18141;DHT22;9196;49.194;12.526;2022-08-25T13:28:29;28.90;92.80
18141;DHT22;9196;49.194;12.526;2022-08-25T13:30:59;28.80;92.60
18141;DHT22;9196;49.194;12.526;2022-08-25T13:33:26;28.80;93.00
18141;DHT22;9196;49.194;12.526;2022-08-25T13:35:56;28.80;92.50
18141;DHT22;9196;49.194;12.526;2022-08-25T13:38:38;28.90;92.60
18141;DHT22;9196;49.194;12.526;2022-08-25T13:41:06;29.00;92.30
18141;DHT22;9196;49.194;12.526;2022-08-25T13:43:34;29.00;92.30
18141;DHT22;9196;49.194;12.526;2022-08-25T13:46:00;28.90;92.40
18141;DHT22;9196;49.194;12.526;2022-08-25T13:48:32;28.90;92.10
18141;DHT22;9196;49.194;12.526;2022-08-25T13:51:20;29.00;92.40
18141;DHT22;9196;49.194;12.526;2022-08-25T13:53:54;29.40;92.50
18141;DHT22;9196;49.194;12.526;2022-08-25T13:56:30;29.80;92.20
18141;DHT22;9196;49.194;12.526;2022-08-25T13:58:59;30.00;90.40
18141;DHT22;9196;49.194;12.526;2022-08-25T14:01:29;30.30;91.40
18141;DHT22;9196;49.194;12.526;2022-08-25T14:04:20;30.30;90.50
18141;DHT22;9196;49.194;12.526;2022-08-25T14:06:47;30.60;90.40
18141;DHT22;9196;49.194;12.526;2022-08-25T14:09:17;30.70;90.00
18141;DHT22;9196;49.194;12.526;2022-08-25T14:11:46;30.80;89.30
18141;DHT22;9196;49.194;12.526;2022-08-25T14:14:30;30.90;89.20
18141;DHT22;9196;49.194;12.526;2022-08-25T14:17:00;30.80;87.40
18141;DHT22;9196;49.194;12.526;2022-08-25T14:19:27;30.60;88.20
18141;DHT22;9196;49.194;12.526;2022-08-25T14:21:56;30.40;87.70
18141;DHT22;9196;49.194;12.526;2022-08-25T14:24:32;29.90;87.50
18141;DHT22;9196;49.194;12.526;2022-08-25T14:27:00;29.80;88.10
18141;DHT22;9196;49.194;12.526;2022-08-25T14:29:27;29.60;89.40
18141;DHT22;9196;49.194;12.526;2022-08-25T14:31:55;29.40;89.50
18141;DHT22;9196;49.194;12.526;2022-08-25T14:34:25;29.10;88.70
18141;DHT22;9196;49.194;12.526;2022-08-25T14:36:52;29.20;90.50
18141;DHT22;9196;49.194;12.526;2022-08-25T14:39:19;29.50;90.30
18141;DHT22;9196;49.194;12.526;2022-08-25T14:41:48;29.60;89.00
18141;DHT22;9196;49.194;12.526;2022-08-25T14:44:15;29.80;90.60
18141;DHT22;9196;49.194;12.526;2022-08-25T14:46:46;30.10;88.10
18141;DHT22;9196;49.194;12.526;2022-08-25T14:49:18;30.40;88.10
18141;DHT22;9196;49.194;12.526;2022-08-25T14:51:46;30.50;87.00
18141;DHT22;9196;49.194;12.526;2022-08-25T14:54:14;30.80;86.50
18141;DHT22;9196;49.194;12.526;2022-08-25T14:56:43;30.80;85.70
18141;DHT22;9196;49.194;12.526;2022-08-25T14:59:13;30.60;85.40
18141;DHT22;9196;49.194;12.526;2022-08-25T15:01:40;30.50;85.70
18141;DHT22;9196;49.194;12.526;2022-08-25T15:04:10;30.40;87.30
18141;DHT22;9196;49.194;12.526;2022-08-25T15:06:38;30.30;86.10
18141;DHT22;9196;49.194;12.526;2022-08-25T15:09:08;30.40;87.30
18141;DHT22;9196;49.194;12.526;2022-08-25T15:11:37;30.50;86.60
18141;DHT22;9196;49.194;12.526;2022-08-25T15:14:04;30.40;85.90
18141;DHT22;9196;49.194;12.526;2022-08-25T15:16:34;30.80;87.40
18141;DHT22;9196;49.194;12.526;2022-08-25T15:19:04;30.90;84.70
18141;DHT22;9196;49.194;12.526;2022-08-25T15:21:31;30.90;84.60
18141;DHT22;9196;49.194;12.526;2022-08-25T15:23:58;30.90;84.60
18141;DHT22;9196;49.194;12.526;2022-08-25T15:26:25;30.90;84.30
18141;DHT22;9196;49.194;12.526;2022-08-25T15:28:53;30.60;82.60
18141;DHT22;9196;49.194;12.526;2022-08-25T15:31:20;30.10;83.60
18141;DHT22;9196;49.194;12.526;2022-08-25T15:33:49;30.00;84.70
18141;DHT22;9196;49.194;12.526;2022-08-25T15:36:24;30.10;85.20
18141;DHT22;9196;49.194;12.526;2022-08-25T15:38:51;30.00;85.30
18141;DHT22;9196;49.194;12.526;2022-08-25T15:41:19;30.00;85.90
18141;DHT22;9196;49.194;12.526;2022-08-25T15:43:47;30.00;85.60
18141;DHT22;9196;49.194;12.526;2022-08-25T15:46:18;30.00;87.40
18141;DHT22;9196;49.194;12.526;2022-08-25T15:48:45;30.20;88.10
18141;DHT22;9196;49.194;12.526;2022-08-25T15:51:14;30.30;88.20
18141;DHT22;9196;49.194;12.526;2022-08-25T15:53:42;30.40;87.80
18141;DHT22;9196;49.194;12.526;2022-08-25T15:56:08;30.00;88.30
18141;DHT22;9196;49.194;12.526;2022-08-25T15:58:39;29.70;88.30
18141;DHT22;9196;49.194;12.526;2022-08-25T16:01:05;29.30;90.10